sensor_id;sensor_type;location;lat;lon;timestamp;pressure;altitude;pressure_sealevel;temperature;humidity
58471;BME280;44258;51.288;12.068;2023-02-18T00:00:25;100816.88;;;9.46;57.79
58471;BME280;44258;51.288;12.068;2023-02-18T00:02:54;100819.19;;;9.33;57.58
58471;BME280;44258;51.288;12.068;2023-02-18T00:05:21;100818.94;;;9.39;57.65
58471;BME280;44258;51.288;12.068;2023-02-18T00:07:48;100827.47;;;9.49;56.86
58471;BME280;44258;51.288;12.068;2023-02-18T00:10:15;100826.25;;;9.13;57.66
58471;BME280;44258;51.288;12.068;2023-02-18T00:12:42;100827.38;;;9.08;57.63
58471;BME280;44258;51.288;12.068;2023-02-18T00:15:09;100833.00;;;9.02;57.68
58471;BME280;44258;51.288;12.068;2023-02-18T00:17:35;100823.69;;;8.90;58.13
58471;BME280;44258;51.288;12.068;2023-02-18T00:20:06;100821.66;;;8.95;58.23
58471;BME280;44258;51.288;12.068;2023-02-18T00:22:34;100820.53;;;9.23;58.06
58471;BME280;44258;51.288;12.068;2023-02-18T00:25:00;100817.94;;;9.42;57.96
58471;BME280;44258;51.288;12.068;2023-02-18T00:27:27;100823.31;;;9.42;58.09
58471;BME280;44258;51.288;12.068;2023-02-18T00:29:53;100821.97;;;9.30;58.56
58471;BME280;44258;51.288;12.068;2023-02-18T00:32:20;100813.28;;;9.25;58.90
58471;BME280;44258;51.288;12.068;2023-02-18T00:34:48;100823.53;;;9.15;58.78
58471;BME280;44258;51.288;12.068;2023-02-18T00:37:15;100805.59;;;9.15;58.45
58471;BME280;44258;51.288;12.068;2023-02-18T00:39:42;100815.28;;;9.20;57.95
58471;BME280;44258;51.288;12.068;2023-02-18T00:42:09;100809.69;;;9.04;57.86
58471;BME280;44258;51.288;12.068;2023-02-18T00:44:35;100808.69;;;9.06;57.77
58471;BME280;44258;51.288;12.068;2023-02-18T00:47:01;100823.53;;;9.15;57.24
58471;BME280;44258;51.288;12.068;2023-02-18T00:49:28;100819.00;;;8.95;56.88
58471;BME280;44258;51.288;12.068;2023-02-18T00:51:55;100818.69;;;8.81;56.71
58471;BME280;44258;51.288;12.068;2023-02-18T00:54:23;100818.56;;;8.84;56.10
58471;BME280;44258;51.288;12.068;2023-02-18T00:56:50;100822.16;;;8.61;56.01
58471;BME280;44258;51.288;12.068;2023-02-18T00:59:16;100828.47;;;8.60;56.21
58471;BME280;44258;51.288;12.068;2023-02-18T01:01:43;100832.28;;;8.76;55.23
58471;BME280;44258;51.288;12.068;2023-02-18T01:04:09;100823.28;;;8.77;55.23
58471;BME280;44258;51.288;12.068;2023-02-18T01:06:36;100813.22;;;8.62;55.21
58471;BME280;44258;51.288;12.068;2023-02-18T01:09:03;100827.16;;;8.48;56.44
58471;BME280;44258;51.288;12.068;2023-02-18T01:11:32;100810.28;;;8.68;56.31
58471;BME280;44258;51.288;12.068;2023-02-18T01:13:58;100810.19;;;8.91;56.14
58471;BME280;44258;51.288;12.068;2023-02-18T01:16:25;100805.31;;;9.01;56.28
58471;BME280;44258;51.288;12.068;2023-02-18T01:18:52;100810.56;;;9.04;56.64
58471;BME280;44258;51.288;12.068;2023-02-18T01:21:18;100795.28;;;9.06;57.12
58471;BME280;44258;51.288;12.068;2023-02-18T01:23:45;100798.28;;;8.99;57.68
58471;BME280;44258;51.288;12.068;2023-02-18T01:26:11;100798.94;;;9.04;57.71
58471;BME280;44258;51.288;12.068;2023-02-18T01:28:39;100795.63;;;8.77;59.07
58471;BME280;44258;51.288;12.068;2023-02-18T01:31:08;100795.25;;;8.86;58.97
58471;BME280;44258;51.288;12.068;2023-02-18T01:33:35;100800.31;;;8.71;59.41
58471;BME280;44258;51.288;12.068;2023-02-18T01:36:03;100795.25;;;8.64;60.20
58471;BME280;44258;51.288;12.068;2023-02-18T01:38:29;100790.56;;;8.91;59.31
58471;BME280;44258;51.288;12.068;2023-02-18T01:40:59;100786.59;;;9.00;59.40
58471;BME280;44258;51.288;12.068;2023-02-18T01:43:25;100789.97;;;9.05;59.25
58471;BME280;44258;51.288;12.068;2023-02-18T01:46:04;100791.03;;;9.01;59.63
58471;BME280;44258;51.288;12.068;2023-02-18T01:48:35;100811.44;;;9.05;59.68
58471;BME280;44258;51.288;12.068;2023-02-18T01:51:07;100809.53;;;8.64;60.39
58471;BME280;44258;51.288;12.068;2023-02-18T01:53:39;100805.22;;;8.60;60.54
58471;BME280;44258;51.288;12.068;2023-02-18T01:56:10;100805.69;;;8.71;60.12
58471;BME280;44258;51.288;12.068;2023-02-18T01:58:38;100815.44;;;8.72;60.00
58471;BME280;44258;51.288;12.068;2023-02-18T02:01:08;100820.97;;;8.46;60.58
58471;BME280;44258;51.288;12.068;2023-02-18T02:03:34;100817.47;;;8.67;60.20
58471;BME280;44258;51.288;12.068;2023-02-18T02:06:01;100813.47;;;8.78;59.89
58471;BME280;44258;51.288;12.068;2023-02-18T02:08:28;100824.41;;;8.93;59.68
58471;BME280;44258;51.288;12.068;2023-02-18T02:11:06;100825.66;;;8.85;60.56
58471;BME280;44258;51.288;12.068;2023-02-18T02:13:48;100823.63;;;9.12;60.15
58471;BME280;44258;51.288;12.068;2023-02-18T02:16:25;100818.72;;;9.01;60.56
58471;BME280;44258;51.288;12.068;2023-02-18T02:19:03;100824.00;;;9.25;59.86
58471;BME280;44258;51.288;12.068;2023-02-18T02:22:04;100829.53;;;9.42;59.82
58471;BME280;44258;51.288;12.068;2023-02-18T02:25:09;100821.22;;;9.48;59.76
58471;BME280;44258;51.288;12.068;2023-02-18T02:30:58;100825.34;;;8.70;61.25
58471;BME280;44258;51.288;12.068;2023-02-18T02:33:45;100818.06;;;8.52;61.45
58471;BME280;44258;51.288;12.068;2023-02-18T02:36:20;100819.06;;;8.49;60.63
58471;BME280;44258;51.288;12.068;2023-02-18T02:38:54;100824.81;;;8.39;59.78
58471;BME280;44258;51.288;12.068;2023-02-18T02:41:44;100823.09;;;8.38;59.53
58471;BME280;44258;51.288;12.068;2023-02-18T02:44:18;100820.34;;;8.61;59.26
58471;BME280;44258;51.288;12.068;2023-02-18T02:46:47;100797.19;;;8.60;58.82
58471;BME280;44258;51.288;12.068;2023-02-18T02:49:27;100798.00;;;8.62;58.59
58471;BME280;44258;51.288;12.068;2023-02-18T02:52:03;100801.69;;;8.82;58.30
58471;BME280;44258;51.288;12.068;2023-02-18T02:54:32;100803.22;;;8.65;58.54
58471;BME280;44258;51.288;12.068;2023-02-18T02:57:08;100796.13;;;8.86;58.07
58471;BME280;44258;51.288;12.068;2023-02-18T02:59:37;100800.66;;;8.84;57.77
58471;BME280;44258;51.288;12.068;2023-02-18T03:02:17;100800.63;;;8.86;57.71
58471;BME280;44258;51.288;12.068;2023-02-18T03:05:05;100796.41;;;9.01;57.47
58471;BME280;44258;51.288;12.068;2023-02-18T03:07:54;100793.84;;;8.98;58.00
58471;BME280;44258;51.288;12.068;2023-02-18T03:10:41;100773.94;;;9.03;58.18
58471;BME280;44258;51.288;12.068;2023-02-18T03:13:17;100769.44;;;9.04;58.58
58471;BME280;44258;51.288;12.068;2023-02-18T03:15:54;100777.91;;;8.94;59.38
58471;BME280;44258;51.288;12.068;2023-02-18T03:18:25;100787.75;;;8.94;59.65
58471;BME280;44258;51.288;12.068;2023-02-18T03:20:57;100782.75;;;8.85;60.38
58471;BME280;44258;51.288;12.068;2023-02-18T03:23:32;100776.03;;;8.74;60.95
58471;BME280;44258;51.288;12.068;2023-02-18T03:26:02;100767.69;;;8.60;61.75
58471;BME280;44258;51.288;12.068;2023-02-18T03:28:30;100771.38;;;8.58;61.93
58471;BME280;44258;51.288;12.068;2023-02-18T03:31:02;100755.03;;;8.42;62.66
58471;BME280;44258;51.288;12.068;2023-02-18T03:33:35;100754.34;;;8.37;62.82
58471;BME280;44258;51.288;12.068;2023-02-18T03:36:03;100752.38;;;8.42;62.86
58471;BME280;44258;51.288;12.068;2023-02-18T03:38:34;100757.22;;;8.54;62.36
58471;BME280;44258;51.288;12.068;2023-02-18T03:41:04;100754.03;;;8.66;62.27
58471;BME280;44258;51.288;12.068;2023-02-18T03:43:31;100755.66;;;8.70;62.26
58471;BME280;44258;51.288;12.068;2023-02-18T03:45:57;100761.31;;;8.63;62.61
58471;BME280;44258;51.288;12.068;2023-02-18T03:48:25;100756.47;;;8.50;63.57
58471;BME280;44258;51.288;12.068;2023-02-18T03:50:52;100754.66;;;8.51;63.56
58471;BME280;44258;51.288;12.068;2023-02-18T03:53:18;100748.69;;;8.66;63.16
58471;BME280;44258;51.288;12.068;2023-02-18T03:55:46;100753.97;;;8.46;64.13
58471;BME280;44258;51.288;12.068;2023-02-18T03:58:13;100739.38;;;8.53;64.19
58471;BME280;44258;51.288;12.068;2023-02-18T04:00:39;100740.03;;;8.38;65.27
58471;BME280;44258;51.288;12.068;2023-02-18T04:03:05;100751.97;;;8.51;65.05
58471;BME280;44258;51.288;12.068;2023-02-18T04:05:32;100744.75;;;8.53;65.05
58471;BME280;44258;51.288;12.068;2023-02-18T04:07:58;100743.59;;;8.81;64.43
58471;BME280;44258;51.288;12.068;2023-02-18T04:10:25;100750.91;;;8.98;63.64
58471;BME280;44258;51.288;12.068;2023-02-18T04:12:56;100754.22;;;8.84;64.77
58471;BME280;44258;51.288;12.068;2023-02-18T04:15:23;100745.63;;;8.76;65.52
58471;BME280;44258;51.288;12.068;2023-02-18T04:17:49;100751.25;;;8.69;66.42
58471;BME280;44258;51.288;12.068;2023-02-18T04:20:16;100762.69;;;8.73;66.66
58471;BME280;44258;51.288;12.068;2023-02-18T04:22:43;100764.13;;;8.82;66.74
58471;BME280;44258;51.288;12.068;2023-02-18T04:25:09;100768.53;;;8.83;67.02
58471;BME280;44258;51.288;12.068;2023-02-18T04:27:36;100775.22;;;8.72;67.85
58471;BME280;44258;51.288;12.068;2023-02-18T04:30:07;100761.72;;;8.76;68.03
58471;BME280;44258;51.288;12.068;2023-02-18T04:32:34;100759.84;;;8.78;68.45
58471;BME280;44258;51.288;12.068;2023-02-18T04:35:00;100756.81;;;8.63;69.69
58471;BME280;44258;51.288;12.068;2023-02-18T04:37:27;100755.72;;;8.47;71.41
58471;BME280;44258;51.288;12.068;2023-02-18T04:39:54;100752.78;;;8.53;71.14
58471;BME280;44258;51.288;12.068;2023-02-18T04:42:21;100746.34;;;8.57;70.73
58471;BME280;44258;51.288;12.068;2023-02-18T04:44:50;100739.31;;;8.54;71.17
58471;BME280;44258;51.288;12.068;2023-02-18T04:47:18;100735.97;;;8.49;71.76
58471;BME280;44258;51.288;12.068;2023-02-18T04:49:45;100738.72;;;8.48;72.80
58471;BME280;44258;51.288;12.068;2023-02-18T04:52:11;100737.16;;;8.42;73.15
58471;BME280;44258;51.288;12.068;2023-02-18T04:54:38;100736.53;;;8.36;74.09
58471;BME280;44258;51.288;12.068;2023-02-18T04:57:04;100727.44;;;8.40;74.01
58471;BME280;44258;51.288;12.068;2023-02-18T04:59:31;100719.25;;;8.43;73.87
58471;BME280;44258;51.288;12.068;2023-02-18T05:01:57;100710.66;;;8.34;74.50
58471;BME280;44258;51.288;12.068;2023-02-18T05:04:25;100705.81;;;8.22;75.63
58471;BME280;44258;51.288;12.068;2023-02-18T05:06:52;100700.88;;;8.33;75.29
58471;BME280;44258;51.288;12.068;2023-02-18T05:09:18;100707.72;;;8.41;75.02
58471;BME280;44258;51.288;12.068;2023-02-18T05:11:45;100709.97;;;8.51;74.40
58471;BME280;44258;51.288;12.068;2023-02-18T05:14:12;100704.78;;;8.47;74.56
58471;BME280;44258;51.288;12.068;2023-02-18T05:16:39;100695.78;;;8.49;74.62
58471;BME280;44258;51.288;12.068;2023-02-18T05:19:05;100700.38;;;8.46;75.08
58471;BME280;44258;51.288;12.068;2023-02-18T05:21:33;100690.41;;;8.49;75.22
58471;BME280;44258;51.288;12.068;2023-02-18T05:24:00;100691.34;;;8.48;75.29
58471;BME280;44258;51.288;12.068;2023-02-18T05:26:26;100681.97;;;8.59;74.64
58471;BME280;44258;51.288;12.068;2023-02-18T05:28:53;100682.28;;;8.51;75.16
58471;BME280;44258;51.288;12.068;2023-02-18T05:31:19;100671.31;;;8.57;75.07
58471;BME280;44258;51.288;12.068;2023-02-18T05:33:46;100668.72;;;8.56;75.05
58471;BME280;44258;51.288;12.068;2023-02-18T05:36:15;100664.56;;;8.69;74.77
58471;BME280;44258;51.288;12.068;2023-02-18T05:38:42;100649.47;;;8.66;74.65
58471;BME280;44258;51.288;12.068;2023-02-18T05:41:09;100636.63;;;8.74;74.56
58471;BME280;44258;51.288;12.068;2023-02-18T05:43:35;100642.44;;;8.64;75.41
58471;BME280;44258;51.288;12.068;2023-02-18T05:46:16;100635.28;;;8.64;75.40
58471;BME280;44258;51.288;12.068;2023-02-18T05:48:43;100644.81;;;8.71;75.09
58471;BME280;44258;51.288;12.068;2023-02-18T05:51:09;100643.06;;;8.70;75.11
58471;BME280;44258;51.288;12.068;2023-02-18T05:53:36;100632.66;;;8.83;74.79
58471;BME280;44258;51.288;12.068;2023-02-18T05:56:05;100636.75;;;8.92;74.50
58471;BME280;44258;51.288;12.068;2023-02-18T05:58:32;100638.91;;;9.04;73.70
58471;BME280;44258;51.288;12.068;2023-02-18T06:00:58;100634.44;;;9.03;74.11
58471;BME280;44258;51.288;12.068;2023-02-18T06:03:24;100628.97;;;9.06;73.65
58471;BME280;44258;51.288;12.068;2023-02-18T06:05:51;100626.19;;;9.08;73.86
58471;BME280;44258;51.288;12.068;2023-02-18T06:08:18;100626.94;;;9.11;73.49
58471;BME280;44258;51.288;12.068;2023-02-18T06:10:45;100624.97;;;9.15;72.94
58471;BME280;44258;51.288;12.068;2023-02-18T06:13:13;100616.13;;;9.13;73.22
58471;BME280;44258;51.288;12.068;2023-02-18T06:15:39;100621.28;;;9.18;73.22
58471;BME280;44258;51.288;12.068;2023-02-18T06:18:06;100622.81;;;9.23;73.06
58471;BME280;44258;51.288;12.068;2023-02-18T06:20:32;100617.22;;;9.28;72.71
58471;BME280;44258;51.288;12.068;2023-02-18T06:22:59;100615.78;;;9.21;73.44
58471;BME280;44258;51.288;12.068;2023-02-18T06:25:25;100605.69;;;9.26;73.15
58471;BME280;44258;51.288;12.068;2023-02-18T06:27:52;100608.91;;;9.34;72.75
58471;BME280;44258;51.288;12.068;2023-02-18T06:30:20;100606.44;;;9.29;73.00
58471;BME280;44258;51.288;12.068;2023-02-18T06:32:46;100607.34;;;9.28;72.70
58471;BME280;44258;51.288;12.068;2023-02-18T06:35:13;100606.22;;;9.34;72.43
58471;BME280;44258;51.288;12.068;2023-02-18T06:37:39;100605.41;;;9.32;72.58
58471;BME280;44258;51.288;12.068;2023-02-18T06:40:07;100595.56;;;9.32;72.72
58471;BME280;44258;51.288;12.068;2023-02-18T06:42:33;100592.06;;;9.11;73.87
58471;BME280;44258;51.288;12.068;2023-02-18T06:45:00;100595.69;;;9.29;73.31
58471;BME280;44258;51.288;12.068;2023-02-18T06:47:28;100593.81;;;9.31;73.38
58471;BME280;44258;51.288;12.068;2023-02-18T06:49:54;100588.06;;;9.41;72.98
58471;BME280;44258;51.288;12.068;2023-02-18T06:52:21;100586.88;;;9.46;72.87
58471;BME280;44258;51.288;12.068;2023-02-18T06:54:47;100580.81;;;9.43;72.97
58471;BME280;44258;51.288;12.068;2023-02-18T06:57:14;100562.66;;;9.48;72.41
58471;BME280;44258;51.288;12.068;2023-02-18T06:59:40;100563.75;;;9.44;72.57
58471;BME280;44258;51.288;12.068;2023-02-18T07:02:09;100560.25;;;9.42;72.56
58471;BME280;44258;51.288;12.068;2023-02-18T07:04:37;100559.59;;;9.37;73.11
58471;BME280;44258;51.288;12.068;2023-02-18T07:07:03;100549.72;;;9.37;73.07
58471;BME280;44258;51.288;12.068;2023-02-18T07:09:30;100547.09;;;9.35;73.34
58471;BME280;44258;51.288;12.068;2023-02-18T07:11:56;100537.41;;;9.33;73.56
58471;BME280;44258;51.288;12.068;2023-02-18T07:14:23;100532.81;;;9.35;73.59
58471;BME280;44258;51.288;12.068;2023-02-18T07:16:50;100534.38;;;9.41;73.37
58471;BME280;44258;51.288;12.068;2023-02-18T07:19:17;100527.75;;;9.29;73.85
58471;BME280;44258;51.288;12.068;2023-02-18T07:21:44;100525.06;;;9.29;73.96
58471;BME280;44258;51.288;12.068;2023-02-18T07:24:11;100524.50;;;9.41;73.77
58471;BME280;44258;51.288;12.068;2023-02-18T07:26:37;100528.13;;;9.40;73.76
58471;BME280;44258;51.288;12.068;2023-02-18T07:29:04;100528.25;;;9.37;73.92
58471;BME280;44258;51.288;12.068;2023-02-18T07:31:30;100525.94;;;9.29;74.18
58471;BME280;44258;51.288;12.068;2023-02-18T07:33:57;100513.78;;;9.41;73.70
58471;BME280;44258;51.288;12.068;2023-02-18T07:36:23;100506.13;;;9.32;74.23
58471;BME280;44258;51.288;12.068;2023-02-18T07:38:51;100508.25;;;9.44;73.67
58471;BME280;44258;51.288;12.068;2023-02-18T07:41:19;100505.75;;;9.59;73.08
58471;BME280;44258;51.288;12.068;2023-02-18T07:43:46;100497.31;;;9.49;73.25
58471;BME280;44258;51.288;12.068;2023-02-18T07:46:12;100505.53;;;9.63;72.74
58471;BME280;44258;51.288;12.068;2023-02-18T07:48:39;100503.66;;;9.65;72.58
58471;BME280;44258;51.288;12.068;2023-02-18T07:51:07;100495.28;;;9.71;72.55
58471;BME280;44258;51.288;12.068;2023-02-18T07:53:34;100498.47;;;9.80;72.08
58471;BME280;44258;51.288;12.068;2023-02-18T07:56:03;100488.03;;;9.91;71.70
58471;BME280;44258;51.288;12.068;2023-02-18T07:58:31;100493.34;;;9.92;71.56
58471;BME280;44258;51.288;12.068;2023-02-18T08:00:58;100479.09;;;9.90;71.83
58471;BME280;44258;51.288;12.068;2023-02-18T08:03:26;100469.69;;;9.99;71.10
58471;BME280;44258;51.288;12.068;2023-02-18T08:05:53;100481.34;;;10.00;71.48
58471;BME280;44258;51.288;12.068;2023-02-18T08:08:21;100480.84;;;10.09;71.05
58471;BME280;44258;51.288;12.068;2023-02-18T08:10:49;100478.03;;;10.12;71.03
58471;BME280;44258;51.288;12.068;2023-02-18T08:13:17;100478.78;;;9.97;71.52
58471;BME280;44258;51.288;12.068;2023-02-18T08:15:44;100460.94;;;10.13;70.74
58471;BME280;44258;51.288;12.068;2023-02-18T08:18:15;100463.22;;;10.21;70.32
58471;BME280;44258;51.288;12.068;2023-02-18T08:20:46;100462.81;;;10.28;69.99
58471;BME280;44258;51.288;12.068;2023-02-18T08:23:13;100458.31;;;10.29;69.75
58471;BME280;44258;51.288;12.068;2023-02-18T08:25:44;100454.31;;;10.20;69.87
58471;BME280;44258;51.288;12.068;2023-02-18T08:28:11;100450.50;;;10.24;69.96
58471;BME280;44258;51.288;12.068;2023-02-18T08:30:43;100453.59;;;10.17;70.34
58471;BME280;44258;51.288;12.068;2023-02-18T08:33:10;100445.91;;;10.26;69.94
58471;BME280;44258;51.288;12.068;2023-02-18T08:35:36;100449.53;;;10.25;69.91
58471;BME280;44258;51.288;12.068;2023-02-18T08:38:03;100441.66;;;9.87;71.02
58471;BME280;44258;51.288;12.068;2023-02-18T08:40:29;100430.00;;;10.22;70.47
58471;BME280;44258;51.288;12.068;2023-02-18T08:42:56;100429.53;;;10.31;70.21
58471;BME280;44258;51.288;12.068;2023-02-18T08:45:25;100441.16;;;10.31;70.18
58471;BME280;44258;51.288;12.068;2023-02-18T08:47:53;100418.38;;;10.39;70.11
58471;BME280;44258;51.288;12.068;2023-02-18T08:50:20;100419.56;;;10.33;69.92
58471;BME280;44258;51.288;12.068;2023-02-18T08:52:50;100430.84;;;10.40;70.09
58471;BME280;44258;51.288;12.068;2023-02-18T08:55:17;100415.13;;;10.32;70.56
58471;BME280;44258;51.288;12.068;2023-02-18T08:57:45;100406.84;;;10.37;70.41
58471;BME280;44258;51.288;12.068;2023-02-18T09:00:13;100410.91;;;10.44;70.42
58471;BME280;44258;51.288;12.068;2023-02-18T09:02:39;100400.56;;;10.36;70.79
58471;BME280;44258;51.288;12.068;2023-02-18T09:05:08;100405.94;;;10.36;70.83
58471;BME280;44258;51.288;12.068;2023-02-18T09:07:34;100394.91;;;10.58;70.40
58471;BME280;44258;51.288;12.068;2023-02-18T09:10:01;100387.78;;;10.57;70.48
58471;BME280;44258;51.288;12.068;2023-02-18T09:12:29;100389.69;;;10.55;70.62
58471;BME280;44258;51.288;12.068;2023-02-18T09:14:56;100395.84;;;10.57;70.82
58471;BME280;44258;51.288;12.068;2023-02-18T09:17:23;100396.34;;;10.81;70.24
58471;BME280;44258;51.288;12.068;2023-02-18T09:19:49;100387.31;;;10.82;70.02
58471;BME280;44258;51.288;12.068;2023-02-18T09:22:17;100385.66;;;10.80;69.95
58471;BME280;44258;51.288;12.068;2023-02-18T09:24:44;100384.44;;;11.01;69.11
58471;BME280;44258;51.288;12.068;2023-02-18T09:27:11;100374.03;;;10.95;69.30
58471;BME280;44258;51.288;12.068;2023-02-18T09:29:41;100374.28;;;10.90;69.23
58471;BME280;44258;51.288;12.068;2023-02-18T09:32:08;100380.38;;;11.10;68.84
58471;BME280;44258;51.288;12.068;2023-02-18T09:34:36;100380.31;;;10.96;69.24
58471;BME280;44258;51.288;12.068;2023-02-18T09:37:04;100367.94;;;11.07;68.32
58471;BME280;44258;51.288;12.068;2023-02-18T09:39:31;100375.50;;;11.17;68.11
58471;BME280;44258;51.288;12.068;2023-02-18T09:42:00;100373.53;;;10.88;68.58
58471;BME280;44258;51.288;12.068;2023-02-18T09:44:31;100365.00;;;11.12;68.27
58471;BME280;44258;51.288;12.068;2023-02-18T09:47:04;100359.72;;;11.10;68.18
58471;BME280;44258;51.288;12.068;2023-02-18T09:49:35;100350.50;;;10.99;68.34
58471;BME280;44258;51.288;12.068;2023-02-18T09:52:09;100357.78;;;11.12;68.11
58471;BME280;44258;51.288;12.068;2023-02-18T09:54:38;100349.53;;;11.15;68.12
58471;BME280;44258;51.288;12.068;2023-02-18T09:57:05;100331.66;;;11.14;68.10
58471;BME280;44258;51.288;12.068;2023-02-18T09:59:32;100341.94;;;10.92;68.88
58471;BME280;44258;51.288;12.068;2023-02-18T10:02:00;100336.06;;;11.15;68.47
58471;BME280;44258;51.288;12.068;2023-02-18T10:04:29;100327.41;;;11.10;68.65
58471;BME280;44258;51.288;12.068;2023-02-18T10:07:00;100323.78;;;11.26;68.36
58471;BME280;44258;51.288;12.068;2023-02-18T10:09:32;100311.31;;;11.25;68.07
58471;BME280;44258;51.288;12.068;2023-02-18T10:12:10;100307.06;;;11.21;68.19
58471;BME280;44258;51.288;12.068;2023-02-18T10:14:39;100315.84;;;11.24;67.41
58471;BME280;44258;51.288;12.068;2023-02-18T10:17:06;100293.38;;;11.40;67.08
58471;BME280;44258;51.288;12.068;2023-02-18T10:19:35;100291.06;;;11.48;66.77
58471;BME280;44258;51.288;12.068;2023-02-18T10:22:07;100297.44;;;11.47;66.66
58471;BME280;44258;51.288;12.068;2023-02-18T10:24:37;100277.25;;;11.54;66.47
58471;BME280;44258;51.288;12.068;2023-02-18T10:27:07;100278.75;;;11.44;67.06
58471;BME280;44258;51.288;12.068;2023-02-18T10:29:35;100278.31;;;11.51;66.69
58471;BME280;44258;51.288;12.068;2023-02-18T10:32:05;100279.09;;;11.68;65.83
58471;BME280;44258;51.288;12.068;2023-02-18T10:34:39;100267.94;;;11.60;66.17
58471;BME280;44258;51.288;12.068;2023-02-18T10:37:22;100267.13;;;11.43;66.45
58471;BME280;44258;51.288;12.068;2023-02-18T10:39:59;100268.56;;;11.34;66.77
58471;BME280;44258;51.288;12.068;2023-02-18T10:42:39;100272.41;;;11.30;66.60
58471;BME280;44258;51.288;12.068;2023-02-18T10:45:17;100279.91;;;11.40;66.37
58471;BME280;44258;51.288;12.068;2023-02-18T10:47:47;100273.44;;;11.28;66.79
58471;BME280;44258;51.288;12.068;2023-02-18T10:50:26;100266.03;;;11.31;66.91
58471;BME280;44258;51.288;12.068;2023-02-18T10:52:55;100259.19;;;11.26;66.64
58471;BME280;44258;51.288;12.068;2023-02-18T10:55:34;100265.19;;;11.31;66.55
58471;BME280;44258;51.288;12.068;2023-02-18T10:58:03;100260.34;;;11.22;66.72
58471;BME280;44258;51.288;12.068;2023-02-18T11:00:49;100263.69;;;11.11;66.58
58471;BME280;44258;51.288;12.068;2023-02-18T11:03:18;100266.66;;;11.06;66.75
58471;BME280;44258;51.288;12.068;2023-02-18T11:05:47;100272.78;;;11.24;66.02
58471;BME280;44258;51.288;12.068;2023-02-18T11:08:17;100253.56;;;11.00;66.15
58471;BME280;44258;51.288;12.068;2023-02-18T11:10:45;100273.50;;;11.12;66.09
58471;BME280;44258;51.288;12.068;2023-02-18T11:13:22;100267.75;;;10.88;66.45
58471;BME280;44258;51.288;12.068;2023-02-18T11:15:56;100270.06;;;10.94;65.83
58471;BME280;44258;51.288;12.068;2023-02-18T11:18:35;100270.78;;;10.82;66.17
58471;BME280;44258;51.288;12.068;2023-02-18T11:21:06;100272.69;;;10.64;67.08
58471;BME280;44258;51.288;12.068;2023-02-18T11:23:46;100278.78;;;10.83;66.35
58471;BME280;44258;51.288;12.068;2023-02-18T11:26:14;100253.78;;;10.49;66.54
58471;BME280;44258;51.288;12.068;2023-02-18T11:28:44;100242.88;;;10.99;65.37
58471;BME280;44258;51.288;12.068;2023-02-18T11:31:18;100241.97;;;10.84;65.52
58471;BME280;44258;51.288;12.068;2023-02-18T11:33:48;100237.78;;;10.94;65.52
58471;BME280;44258;51.288;12.068;2023-02-18T11:36:22;100229.28;;;11.02;64.93
58471;BME280;44258;51.288;12.068;2023-02-18T11:38:52;100214.31;;;11.12;64.65
58471;BME280;44258;51.288;12.068;2023-02-18T11:41:21;100217.03;;;10.96;64.79
58471;BME280;44258;51.288;12.068;2023-02-18T11:43:55;100219.25;;;10.89;64.26
58471;BME280;44258;51.288;12.068;2023-02-18T11:46:24;100206.84;;;11.01;63.67
58471;BME280;44258;51.288;12.068;2023-02-18T11:48:52;100206.59;;;11.06;62.90
58471;BME280;44258;51.288;12.068;2023-02-18T11:51:23;100204.75;;;11.06;62.98
58471;BME280;44258;51.288;12.068;2023-02-18T11:53:55;100195.88;;;10.90;63.79
58471;BME280;44258;51.288;12.068;2023-02-18T11:56:28;100208.88;;;10.98;63.44
58471;BME280;44258;51.288;12.068;2023-02-18T11:58:57;100199.31;;;11.08;63.41
58471;BME280;44258;51.288;12.068;2023-02-18T12:01:30;100188.81;;;11.18;63.17
58471;BME280;44258;51.288;12.068;2023-02-18T12:04:07;100186.25;;;11.16;62.97
58471;BME280;44258;51.288;12.068;2023-02-18T12:06:37;100191.00;;;10.97;62.81
58471;BME280;44258;51.288;12.068;2023-02-18T12:09:19;100204.16;;;11.01;62.73
58471;BME280;44258;51.288;12.068;2023-02-18T12:11:50;100201.34;;;11.19;62.69
58471;BME280;44258;51.288;12.068;2023-02-18T12:14:20;100180.09;;;11.28;62.43
58471;BME280;44258;51.288;12.068;2023-02-18T12:20:05;100166.78;;;10.97;60.71
58471;BME280;44258;51.288;12.068;2023-02-18T12:22:41;100200.53;;;11.02;60.92
58471;BME280;44258;51.288;12.068;2023-02-18T12:25:24;100184.75;;;10.96;61.16
58471;BME280;44258;51.288;12.068;2023-02-18T12:27:58;100180.53;;;11.06;60.45
58471;BME280;44258;51.288;12.068;2023-02-18T12:33:37;100170.63;;;10.92;61.33
58471;BME280;44258;51.288;12.068;2023-02-18T12:36:18;100162.09;;;11.00;60.72
58471;BME280;44258;51.288;12.068;2023-02-18T12:39:02;100140.34;;;11.03;61.37
58471;BME280;44258;51.288;12.068;2023-02-18T12:41:45;100142.25;;;10.87;60.78
58471;BME280;44258;51.288;12.068;2023-02-18T12:44:28;100153.91;;;10.87;60.84
58471;BME280;44258;51.288;12.068;2023-02-18T12:47:16;100154.19;;;10.97;60.66
58471;BME280;44258;51.288;12.068;2023-02-18T12:50:26;100153.06;;;11.15;60.05
58471;BME280;44258;51.288;12.068;2023-02-18T12:53:14;100169.00;;;11.04;60.65
58471;BME280;44258;51.288;12.068;2023-02-18T12:56:00;100172.47;;;11.06;61.43
58471;BME280;44258;51.288;12.068;2023-02-18T12:58:38;100167.06;;;10.92;61.28
58471;BME280;44258;51.288;12.068;2023-02-18T13:01:19;100143.34;;;11.13;60.25
58471;BME280;44258;51.288;12.068;2023-02-18T13:04:14;100164.97;;;11.11;60.43
58471;BME280;44258;51.288;12.068;2023-02-18T13:07:12;100150.28;;;11.17;60.08
58471;BME280;44258;51.288;12.068;2023-02-18T13:09:53;100166.63;;;11.14;59.77